Impacts METAR Board INFO
IDs:

KEWR - Newark Intl, NJ, US

Updated at: 1946 UTC 25 Feb 2018
Potential Impact None Slight Moderate High
Time25/07Z 25/08Z 25/09Z 25/10Z 25/11Z 25/12Z 25/13Z 25/14Z 25/15Z 25/16Z 25/17Z 25/18Z 25/19Z
VIS10 10 4 5 6 3 4 6 8 4 6 7 5
CIG55 20 20 12 8 6 6 9 9 8 6 7 7
CoverOVCOVCOVCOVCOVCOVCOVCOVCOVCOVCOVCOVCOVC
FltCatVFRMVFRMVFRMVFRIFRIFRIFRIFRIFRIFRIFRIFRIFR
WX---RARA BRRA BRRA BRRA BRRA BRRA BR-RARA BR-RA BR-RA-RA BR
WDir507080306060708060340405010
WSpd8 5 5 7 8 7 11 8 8 11 13 7 11
WGst-- -- -- -- -- -- -- -- -- -- -- -- --
Raw hourly METARs
KEWR 250651Z 05008KT 10SM FEW020 OVC055 07/03 A3017 RMK AO2 RAB43E50 SLP217 P0000 T00670033
KEWR 250803Z 07005KT 10SM -RA BKN020 OVC046 07/03 A3014 RMK AO2 P0000 T00670033
KEWR 250851Z 08005KT 4SM RA BR OVC020 06/04 A3016 RMK AO2 SLP211 P0007 60007 T00610039 55013
KEWR 251004Z 03007KT 5SM RA BR FEW008 BKN012 OVC022 06/04 A3013 RMK AO2 P0002 T00610044
KEWR 251051Z 06008KT 6SM RA BR OVC008 06/05 A3011 RMK AO2 SLP196 P0022 T00610050
KEWR 251156Z 06007KT 3SM RA BR BKN006 OVC010 06/06 A3010 RMK AO2 P0001 T00610056
KEWR 251251Z 07011KT 4SM RA BR BKN006 OVC012 06/06 A3011 RMK AO2 SLP195 P0013 T00610056
KEWR 251351Z 08008KT 6SM R04R/6000VP6000FT RA BR SCT006 BKN009 OVC014 06/05 A3007 RMK AO2 SLP180 P0006 T00610050
KEWR 251451Z 06008KT 8SM -RA OVC009 06/05 A3003 RMK AO2 SLP169 P0005 60024 T00610050 58022
KEWR 251551Z 34011KT 4SM RA BR OVC008 06/05 A3003 RMK AO2 SLP169 P0006 T00610050
KEWR 251651Z 04013KT 6SM -RA BR BKN006 OVC010 05/04 A2997 RMK AO2 PRESFR SLP148 P0003 T00500044 $
KEWR 251751Z 05007KT 030V090 7SM -RA BKN007 OVC011 06/06 A2993 RMK AO2 SLP133 P0001 60034 T00610056 10067 20050 58036 $
KEWR 251851Z 01011KT 5SM -RA BR BKN007 OVC011 06/05 A2998 RMK AO2 SLP150 P0000 T00560050 $